Time;durP1;ratioP1;P1;durP2;ratioP2;P2;SDS_P1;SDS_P2;PMS_P1;PMS_P2;Temp;Humidity;BMP_temperature;BMP_pressure;BME280_temperature;BME280_humidity;BME280_pressure;Samples;Min_cycle;Max_cycle;Signal;HPM_P1;HPM_P2
2021/12/27 00:00:32;;;;;;;12.60;8.23;;;;;;;;;;5072832;28;20615;-64
2021/12/27 00:03:00;;;;;;;9.57;7.07;;;;;;;;;;5073273;28;20434;-64
2021/12/27 00:05:28;;;;;;;9.90;6.73;;;;;;;;;;5072998;28;20462;-64
2021/12/27 00:07:54;;;;;;;8.00;6.73;;;;;;;;;;5072833;28;20893;-64
2021/12/27 00:10:21;;;;;;;8.33;6.43;;;;;;;;;;5072848;28;20579;-64
2021/12/27 00:12:48;;;;;;;10.30;7.63;;;;;;;;;;5072523;28;20430;-64
2021/12/27 00:15:14;;;;;;;8.20;6.63;;;;;;;;;;5072538;28;20496;-63
2021/12/27 00:17:41;;;;;;;12.03;7.80;;;;;;;;;;5072587;28;20507;-64
2021/12/27 00:20:07;;;;;;;9.83;7.13;;;;;;;;;;5072757;28;20434;-63
2021/12/27 00:22:34;;;;;;;9.33;6.90;;;;;;;;;;5072590;28;20464;-64
2021/12/27 00:25:00;;;;;;;12.33;8.27;;;;;;;;;;5072753;28;20481;-64
2021/12/27 00:27:26;;;;;;;9.97;7.07;;;;;;;;;;5072570;28;20469;-62
2021/12/27 00:29:52;;;;;;;11.97;7.40;;;;;;;;;;5072869;28;20438;-63
2021/12/27 00:32:18;;;;;;;10.10;7.37;;;;;;;;;;5072284;28;20434;-63
2021/12/27 00:34:44;;;;;;;11.90;7.20;;;;;;;;;;5072337;28;20438;-63
2021/12/27 00:37:10;;;;;;;9.83;6.60;;;;;;;;;;5072808;28;20453;-62
2021/12/27 00:39:38;;;;;;;7.47;6.63;;;;;;;;;;5072163;28;20438;-62
2021/12/27 00:42:05;;;;;;;10.10;7.47;;;;;;;;;;5072528;28;20442;-63
2021/12/27 00:44:31;;;;;;;8.07;6.57;;;;;;;;;;5072032;28;20473;-63
2021/12/27 00:46:57;;;;;;;9.63;7.33;;;;;;;;;;5072459;28;20487;-63
2021/12/27 00:49:23;;;;;;;11.13;7.60;;;;;;;;;;5072424;28;20438;-63
2021/12/27 00:51:49;;;;;;;17.00;10.63;;;;;;;;;;5072199;28;20925;-63
2021/12/27 00:54:15;;;;;;;11.10;8.13;;;;;;;;;;5072205;28;20422;-63
2021/12/27 00:56:43;;;;;;;9.47;7.30;;;;;;;;;;5071813;28;21001;-63
2021/12/27 00:59:08;;;;;;;8.73;7.00;;;;;;;;;;5071375;28;20481;-63
2021/12/27 01:01:34;;;;;;;13.93;7.57;;;;;;;;;;5072050;28;20465;-63
2021/12/27 01:04:01;;;;;;;9.63;7.07;;;;;;;;;;5072151;28;20211;-63
2021/12/27 01:06:27;;;;;;;9.73;6.53;;;;;;;;;;5071824;28;20220;-63
2021/12/27 01:08:53;;;;;;;12.63;7.50;;;;;;;;;;5071711;28;20532;-63
2021/12/27 01:11:26;;;;;;;11.07;7.10;;;;;;;;;;5070495;28;20936;-62
2021/12/27 01:14:10;;;;;;;10.87;7.50;;;;;;;;;;5072106;28;20438;-62
2021/12/27 01:16:36;;;;;;;10.73;6.93;;;;;;;;;;5071983;28;20572;-63
2021/12/27 01:19:02;;;;;;;9.30;6.87;;;;;;;;;;5072115;28;20495;-64
2021/12/27 01:21:28;;;;;;;10.87;7.83;;;;;;;;;;5071780;28;20442;-64
2021/12/27 01:23:55;;;;;;;8.37;6.47;;;;;;;;;;5071988;28;20430;-63
2021/12/27 01:26:22;;;;;;;9.30;7.20;;;;;;;;;;5071963;28;20457;-64
2021/12/27 01:28:48;;;;;;;11.43;7.17;;;;;;;;;;5072092;28;20465;-63
2021/12/27 01:31:15;;;;;;;11.00;7.93;;;;;;;;;;5070281;28;20438;-64
2021/12/27 01:33:44;;;;;;;8.77;6.40;;;;;;;;;;5071864;28;20862;-63
2021/12/27 01:36:10;;;;;;;9.73;6.53;;;;;;;;;;5071844;28;20530;-63
2021/12/27 01:38:37;;;;;;;9.83;6.97;;;;;;;;;;5071471;28;20426;-63
2021/12/27 01:41:05;;;;;;;8.67;7.00;;;;;;;;;;5071745;28;20557;-62
2021/12/27 01:43:32;;;;;;;10.13;7.20;;;;;;;;;;5071765;28;20438;-63
2021/12/27 01:45:59;;;;;;;9.80;7.67;;;;;;;;;;5071867;28;20991;-62
2021/12/27 01:48:30;;;;;;;9.93;7.30;;;;;;;;;;5071563;28;20441;-64
2021/12/27 01:50:56;;;;;;;8.67;6.93;;;;;;;;;;5071738;28;20940;-64
2021/12/27 01:53:23;;;;;;;8.97;7.13;;;;;;;;;;5071564;28;20430;-63
2021/12/27 01:55:50;;;;;;;9.77;5.93;;;;;;;;;;5071541;28;20501;-64
2021/12/27 01:58:17;;;;;;;10.30;7.27;;;;;;;;;;5071519;28;20800;-64
2021/12/27 02:00:44;;;;;;;12.13;7.47;;;;;;;;;;5071475;28;20552;-64
2021/12/27 02:03:11;;;;;;;10.67;7.43;;;;;;;;;;5071460;28;20442;-63
2021/12/27 02:05:38;;;;;;;12.30;7.67;;;;;;;;;;5071092;28;20454;-63
2021/12/27 02:08:04;;;;;;;10.57;6.80;;;;;;;;;;5071540;28;20448;-62
2021/12/27 02:10:32;;;;;;;9.60;7.30;;;;;;;;;;5073805;28;20442;-62
2021/12/27 02:12:58;;;;;;;9.50;7.07;;;;;;;;;;5075531;28;20795;-63
2021/12/27 02:15:24;;;;;;;9.27;6.90;;;;;;;;;;5075621;28;20497;-63
2021/12/27 02:17:50;;;;;;;11.90;7.80;;;;;;;;;;5075442;28;20975;-63
2021/12/27 02:20:19;;;;;;;10.87;7.07;;;;;;;;;;5075603;28;20477;-63
2021/12/27 02:22:46;;;;;;;10.43;7.10;;;;;;;;;;5075300;28;20936;-63
2021/12/27 02:25:12;;;;;;;9.57;7.13;;;;;;;;;;5075133;28;20939;-63
2021/12/27 02:27:39;;;;;;;10.20;7.43;;;;;;;;;;5075234;28;20448;-64
2021/12/27 02:30:07;;;;;;;11.53;7.43;;;;;;;;;;5075211;28;20438;-63
2021/12/27 02:32:33;;;;;;;11.73;7.57;;;;;;;;;;5075143;28;20437;-63
2021/12/27 02:34:59;;;;;;;8.80;6.97;;;;;;;;;;5075066;28;20829;-64
2021/12/27 02:37:26;;;;;;;11.03;7.80;;;;;;;;;;5074944;28;21028;-63
2021/12/27 02:39:52;;;;;;;11.60;7.40;;;;;;;;;;5074817;28;20463;-63
2021/12/27 02:42:19;;;;;;;10.70;7.13;;;;;;;;;;5074991;28;20434;-63
2021/12/27 02:44:45;;;;;;;11.23;7.37;;;;;;;;;;5074870;28;20499;-64
2021/12/27 02:47:15;;;;;;;10.10;7.10;;;;;;;;;;5074840;28;20449;-63
2021/12/27 02:49:41;;;;;;;10.90;7.23;;;;;;;;;;5074608;28;20442;-62
2021/12/27 02:52:07;;;;;;;11.40;7.90;;;;;;;;;;5074679;28;21074;-62
2021/12/27 02:54:34;;;;;;;9.50;7.03;;;;;;;;;;5074385;28;20199;-63
2021/12/27 02:57:01;;;;;;;10.10;7.17;;;;;;;;;;5074699;28;20469;-63
2021/12/27 02:59:26;;;;;;;12.17;7.63;;;;;;;;;;5073255;28;20514;-63
2021/12/27 03:01:53;;;;;;;10.53;7.83;;;;;;;;;;5072849;28;20983;-62
2021/12/27 03:04:19;;;;;;;10.40;7.13;;;;;;;;;;5072845;28;20963;-63
2021/12/27 03:06:45;;;;;;;9.77;7.33;;;;;;;;;;5074356;28;20498;-62
2021/12/27 03:09:11;;;;;;;11.40;7.30;;;;;;;;;;5074421;28;20231;-63
2021/12/27 03:11:38;;;;;;;9.93;7.47;;;;;;;;;;5074322;28;20204;-63
2021/12/27 03:14:04;;;;;;;11.50;8.67;;;;;;;;;;5074224;28;20805;-63
2021/12/27 03:16:32;;;;;;;11.97;7.40;;;;;;;;;;5074346;28;21093;-63
2021/12/27 03:18:58;;;;;;;11.17;7.80;;;;;;;;;;5074382;28;20192;-63
2021/12/27 03:21:25;;;;;;;11.03;7.73;;;;;;;;;;5073436;28;20437;-63
2021/12/27 03:23:51;;;;;;;9.83;7.97;;;;;;;;;;5074081;28;20203;-63
2021/12/27 03:26:17;;;;;;;13.90;9.13;;;;;;;;;;5074108;28;20958;-62
2021/12/27 03:28:45;;;;;;;10.67;7.33;;;;;;;;;;5073985;28;20290;-62
2021/12/27 03:31:11;;;;;;;11.33;7.40;;;;;;;;;;5074038;28;20967;-63
2021/12/27 03:33:37;;;;;;;10.63;7.83;;;;;;;;;;5073823;28;20438;-63
2021/12/27 03:36:06;;;;;;;10.30;7.77;;;;;;;;;;5073990;28;21026;-62
2021/12/27 03:38:34;;;;;;;12.30;7.40;;;;;;;;;;5073704;28;20935;-62
2021/12/27 03:41:01;;;;;;;11.20;8.13;;;;;;;;;;5073836;28;20557;-63
2021/12/27 03:43:27;;;;;;;11.80;8.20;;;;;;;;;;5073762;28;20994;-63
2021/12/27 03:45:54;;;;;;;14.03;7.97;;;;;;;;;;5073785;28;20449;-63
2021/12/27 03:48:20;;;;;;;12.17;8.73;;;;;;;;;;5073642;28;20445;-63
2021/12/27 03:50:46;;;;;;;10.47;7.47;;;;;;;;;;5073661;28;20438;-63
2021/12/27 03:53:13;;;;;;;9.63;7.57;;;;;;;;;;5073694;28;20434;-63
2021/12/27 03:55:39;;;;;;;11.33;7.60;;;;;;;;;;5073333;28;20583;-63
2021/12/27 03:58:11;;;;;;;10.50;7.67;;;;;;;;;;5073147;28;20492;-63
2021/12/27 04:00:59;;;;;;;11.57;7.60;;;;;;;;;;5073423;28;20540;-63
2021/12/27 04:03:27;;;;;;;11.30;8.57;;;;;;;;;;5073443;28;20424;-63
2021/12/27 04:05:53;;;;;;;9.90;8.10;;;;;;;;;;5073187;28;20513;-63
2021/12/27 04:08:21;;;;;;;9.97;7.90;;;;;;;;;;5073199;28;20473;-63
2021/12/27 04:10:47;;;;;;;13.57;7.77;;;;;;;;;;5073179;28;20633;-63
2021/12/27 04:13:13;;;;;;;11.00;7.70;;;;;;;;;;5073154;28;20442;-63
2021/12/27 04:15:40;;;;;;;9.97;7.67;;;;;;;;;;5072903;28;20488;-63
2021/12/27 04:18:09;;;;;;;11.10;7.73;;;;;;;;;;5072955;28;20929;-63
2021/12/27 04:20:36;;;;;;;10.57;8.00;;;;;;;;;;5072953;28;20532;-63
2021/12/27 04:23:02;;;;;;;13.73;8.63;;;;;;;;;;5073068;28;20430;-63
2021/12/27 04:25:28;;;;;;;11.50;7.60;;;;;;;;;;5072791;28;20934;-63
2021/12/27 04:27:54;;;;;;;10.37;7.47;;;;;;;;;;5072898;28;20195;-63
2021/12/27 04:30:21;;;;;;;11.77;8.23;;;;;;;;;;5072706;28;20195;-63
2021/12/27 04:32:49;;;;;;;11.53;8.40;;;;;;;;;;5072008;28;20826;-63
2021/12/27 04:35:16;;;;;;;13.07;8.83;;;;;;;;;;5072208;28;20442;-63
2021/12/27 04:37:43;;;;;;;12.00;8.20;;;;;;;;;;5072544;28;20446;-63
2021/12/27 04:40:10;;;;;;;14.33;8.60;;;;;;;;;;5072450;28;20469;-63
2021/12/27 04:42:37;;;;;;;11.43;8.47;;;;;;;;;;5072562;28;20479;-63
2021/12/27 04:45:04;;;;;;;14.03;8.33;;;;;;;;;;5072453;28;21035;-63
2021/12/27 04:47:30;;;;;;;10.37;8.40;;;;;;;;;;5072318;28;20434;-63
2021/12/27 04:49:56;;;;;;;14.30;8.60;;;;;;;;;;5072454;28;20498;-63
2021/12/27 04:52:22;;;;;;;13.40;8.83;;;;;;;;;;5072155;28;20564;-63
2021/12/27 04:54:50;;;;;;;13.20;9.03;;;;;;;;;;5071676;28;20440;-63
2021/12/27 04:57:16;;;;;;;9.87;8.60;;;;;;;;;;5071806;28;20804;-63
2021/12/27 04:59:42;;;;;;;12.70;8.30;;;;;;;;;;5071846;28;20437;-63
2021/12/27 05:02:08;;;;;;;11.23;8.23;;;;;;;;;;5072035;28;20441;-63
2021/12/27 05:04:35;;;;;;;11.53;8.40;;;;;;;;;;5071780;28;20195;-62
2021/12/27 05:07:01;;;;;;;16.07;11.60;;;;;;;;;;5072210;28;20430;-63
2021/12/27 05:09:27;;;;;;;14.43;9.53;;;;;;;;;;5072026;28;20930;-63
2021/12/27 05:11:54;;;;;;;10.97;8.00;;;;;;;;;;5072260;28;20437;-63
2021/12/27 05:14:20;;;;;;;11.27;9.10;;;;;;;;;;5072137;28;20219;-63
2021/12/27 05:16:48;;;;;;;11.03;8.77;;;;;;;;;;5072005;28;20925;-63
2021/12/27 05:19:14;;;;;;;11.10;9.03;;;;;;;;;;5071958;28;20568;-63
2021/12/27 05:21:40;;;;;;;11.20;8.57;;;;;;;;;;5071930;28;20936;-63
2021/12/27 05:24:06;;;;;;;13.73;8.50;;;;;;;;;;5071962;28;20438;-63
2021/12/27 05:26:32;;;;;;;10.20;8.47;;;;;;;;;;5071910;28;20444;-63
2021/12/27 05:28:59;;;;;;;9.90;8.00;;;;;;;;;;5072071;28;20517;-62
2021/12/27 05:31:25;;;;;;;12.80;8.93;;;;;;;;;;5072003;28;20191;-62
2021/12/27 05:33:51;;;;;;;13.77;8.47;;;;;;;;;;5071899;28;20540;-63
2021/12/27 05:36:17;;;;;;;14.50;9.13;;;;;;;;;;5071813;28;20231;-63
2021/12/27 05:38:43;;;;;;;11.87;8.67;;;;;;;;;;5071761;28;20442;-63
2021/12/27 05:41:09;;;;;;;14.53;9.57;;;;;;;;;;5071562;28;20888;-63
2021/12/27 05:43:35;;;;;;;13.53;10.00;;;;;;;;;;5071809;28;20430;-63
2021/12/27 05:46:03;;;;;;;13.40;9.77;;;;;;;;;;5071543;28;20434;-63
2021/12/27 05:48:30;;;;;;;12.37;9.50;;;;;;;;;;5067869;28;20798;-63
2021/12/27 05:50:56;;;;;;;13.50;9.37;;;;;;;;;;5071711;28;20513;-63
2021/12/27 05:53:22;;;;;;;12.53;9.80;;;;;;;;;;5071500;28;20867;-63
2021/12/27 05:55:48;;;;;;;14.40;10.00;;;;;;;;;;5071735;28;20224;-63
2021/12/27 05:58:14;;;;;;;12.03;9.30;;;;;;;;;;5071652;28;20461;-63
2021/12/27 06:00:40;;;;;;;15.13;10.10;;;;;;;;;;5071509;28;20542;-62
2021/12/27 06:03:07;;;;;;;14.87;9.70;;;;;;;;;;5071458;28;20430;-63
2021/12/27 06:05:33;;;;;;;15.20;10.00;;;;;;;;;;5071387;28;20481;-63
2021/12/27 06:08:01;;;;;;;13.43;10.13;;;;;;;;;;5071598;28;20430;-63
2021/12/27 06:10:27;;;;;;;16.77;10.87;;;;;;;;;;5071364;28;20955;-63
2021/12/27 06:12:53;;;;;;;17.63;11.57;;;;;;;;;;5071461;28;20930;-63
2021/12/27 06:15:19;;;;;;;13.77;11.07;;;;;;;;;;5071366;28;20859;-63
2021/12/27 06:17:45;;;;;;;16.80;11.23;;;;;;;;;;5071219;28;20524;-62
2021/12/27 06:20:13;;;;;;;17.53;11.20;;;;;;;;;;5071442;28;20481;-62
2021/12/27 06:22:40;;;;;;;13.47;11.37;;;;;;;;;;5071190;28;20438;-63
2021/12/27 06:25:06;;;;;;;15.37;11.07;;;;;;;;;;5071230;28;20444;-62
2021/12/27 06:27:32;;;;;;;15.83;11.10;;;;;;;;;;5071264;28;20464;-63
2021/12/27 06:29:58;;;;;;;17.47;11.70;;;;;;;;;;5071304;28;20524;-63
2021/12/27 06:32:24;;;;;;;16.13;11.70;;;;;;;;;;5071150;28;20530;-63
2021/12/27 06:34:50;;;;;;;15.87;12.10;;;;;;;;;;5070965;28;20199;-63
2021/12/27 06:37:17;;;;;;;15.40;11.70;;;;;;;;;;5071152;28;20305;-63
2021/12/27 06:39:43;;;;;;;15.87;12.00;;;;;;;;;;5070749;28;20302;-61
2021/12/27 06:42:09;;;;;;;16.10;11.83;;;;;;;;;;5070930;28;20517;-63
2021/12/27 06:44:35;;;;;;;16.80;12.07;;;;;;;;;;5070894;28;20821;-63
2021/12/27 06:47:02;;;;;;;15.90;12.00;;;;;;;;;;5070820;28;20199;-63
2021/12/27 06:49:28;;;;;;;16.00;12.77;;;;;;;;;;5070685;28;20791;-64
2021/12/27 06:51:54;;;;;;;17.20;12.97;;;;;;;;;;5070811;28;20928;-64
2021/12/27 06:54:21;;;;;;;14.00;12.47;;;;;;;;;;5070645;28;20825;-61
2021/12/27 06:56:47;;;;;;;15.33;12.43;;;;;;;;;;5071480;28;20545;-62
2021/12/27 06:59:13;;;;;;;20.33;13.13;;;;;;;;;;5074203;28;20439;-63
2021/12/27 07:01:39;;;;;;;17.07;12.27;;;;;;;;;;5074149;28;20266;-63
2021/12/27 07:04:05;;;;;;;16.73;13.03;;;;;;;;;;5074196;28;20211;-63
2021/12/27 07:06:31;;;;;;;16.87;12.30;;;;;;;;;;5074306;28;20216;-62
2021/12/27 07:08:57;;;;;;;17.80;13.43;;;;;;;;;;5074116;28;20520;-63
2021/12/27 07:11:25;;;;;;;17.13;13.00;;;;;;;;;;5074177;28;20513;-64
2021/12/27 07:13:51;;;;;;;15.23;11.47;;;;;;;;;;5074014;28;20210;-63
2021/12/27 07:16:17;;;;;;;17.10;12.73;;;;;;;;;;5073740;28;20474;-63
2021/12/27 07:18:43;;;;;;;14.73;12.77;;;;;;;;;;5073721;28;20723;-63
2021/12/27 07:21:09;;;;;;;15.50;11.97;;;;;;;;;;5074096;28;20729;-63
2021/12/27 07:23:35;;;;;;;17.77;12.40;;;;;;;;;;5073743;28;20924;-63
2021/12/27 07:26:01;;;;;;;15.77;12.17;;;;;;;;;;5074226;28;20437;-63
2021/12/27 07:28:28;;;;;;;17.90;12.37;;;;;;;;;;5073827;28;20246;-62
2021/12/27 07:30:54;;;;;;;15.17;12.13;;;;;;;;;;5073902;28;20456;-63
2021/12/27 07:33:20;;;;;;;16.07;12.20;;;;;;;;;;5073845;28;20421;-63
2021/12/27 07:35:47;;;;;;;19.70;12.67;;;;;;;;;;5073704;28;20530;-64
2021/12/27 07:38:13;;;;;;;20.07;12.40;;;;;;;;;;5073669;28;20503;-64
2021/12/27 07:40:39;;;;;;;14.80;12.23;;;;;;;;;;5073514;28;20523;-64
2021/12/27 07:43:05;;;;;;;15.37;12.67;;;;;;;;;;5073685;28;20434;-64
2021/12/27 07:45:33;;;;;;;13.63;11.07;;;;;;;;;;5073554;28;20568;-64
2021/12/27 07:47:59;;;;;;;18.20;12.87;;;;;;;;;;5073841;28;20229;-63
2021/12/27 07:50:25;;;;;;;16.93;11.87;;;;;;;;;;5073660;28;20491;-62
2021/12/27 07:52:51;;;;;;;19.90;12.90;;;;;;;;;;5073507;28;20442;-63
2021/12/27 07:55:18;;;;;;;18.37;13.27;;;;;;;;;;5073472;28;20944;-63
2021/12/27 07:57:44;;;;;;;14.17;12.20;;;;;;;;;;5073321;28;20469;-63
2021/12/27 08:00:10;;;;;;;17.27;12.27;;;;;;;;;;5073287;28;20438;-64
2021/12/27 08:02:38;;;;;;;15.77;11.53;;;;;;;;;;5073126;28;20203;-63
2021/12/27 08:05:04;;;;;;;17.03;12.60;;;;;;;;;;5073001;28;21046;-63
2021/12/27 08:07:30;;;;;;;18.47;13.57;;;;;;;;;;5072896;28;20517;-64
2021/12/27 08:09:56;;;;;;;15.43;12.77;;;;;;;;;;5073103;28;20545;-63
2021/12/27 08:12:22;;;;;;;17.50;12.20;;;;;;;;;;5073087;28;20196;-64
2021/12/27 08:14:48;;;;;;;15.57;12.17;;;;;;;;;;5072968;28;20207;-61
2021/12/27 08:17:14;;;;;;;18.40;13.13;;;;;;;;;;5072878;28;20223;-60
2021/12/27 08:19:41;;;;;;;17.83;12.87;;;;;;;;;;5073002;28;20429;-62
2021/12/27 08:22:07;;;;;;;17.03;12.23;;;;;;;;;;5072907;28;20450;-61
2021/12/27 08:24:33;;;;;;;17.00;12.37;;;;;;;;;;5072575;28;20438;-67
2021/12/27 08:27:03;;;;;;;16.17;12.20;;;;;;;;;;5072906;28;20995;-66
2021/12/27 08:29:30;;;;;;;14.63;11.77;;;;;;;;;;5072877;28;20245;-62
2021/12/27 08:31:56;;;;;;;16.27;11.70;;;;;;;;;;5072713;28;20929;-61
2021/12/27 08:34:22;;;;;;;15.97;12.37;;;;;;;;;;5072658;28;20928;-60
2021/12/27 08:36:49;;;;;;;14.57;10.80;;;;;;;;;;5072698;28;20462;-60
2021/12/27 08:39:15;;;;;;;14.27;11.33;;;;;;;;;;5072577;28;20485;-60
2021/12/27 08:41:41;;;;;;;16.23;11.60;;;;;;;;;;5072229;28;20466;-60
2021/12/27 08:44:07;;;;;;;13.27;10.67;;;;;;;;;;5072522;28;20475;-59
2021/12/27 08:46:34;;;;;;;16.73;12.20;;;;;;;;;;5072438;28;20458;-60
2021/12/27 08:49:00;;;;;;;14.17;11.30;;;;;;;;;;5072541;28;20434;-61
2021/12/27 08:51:26;;;;;;;16.40;11.53;;;;;;;;;;5072259;28;20438;-62
2021/12/27 08:53:54;;;;;;;15.33;10.57;;;;;;;;;;5072086;28;20437;-60
2021/12/27 08:56:20;;;;;;;13.80;11.23;;;;;;;;;;5072070;28;20586;-62
2021/12/27 08:58:46;;;;;;;14.77;11.60;;;;;;;;;;5072081;28;20784;-61
2021/12/27 09:01:12;;;;;;;15.50;11.10;;;;;;;;;;5072149;28;20931;-62
2021/12/27 09:03:38;;;;;;;14.50;11.53;;;;;;;;;;5071986;28;20541;-62
2021/12/27 09:06:04;;;;;;;14.63;10.83;;;;;;;;;;5072064;28;20553;-62
2021/12/27 09:08:31;;;;;;;14.93;11.90;;;;;;;;;;5071963;28;20441;-62
2021/12/27 09:10:58;;;;;;;16.20;11.47;;;;;;;;;;5071824;28;21011;-61
2021/12/27 09:13:25;;;;;;;17.67;12.30;;;;;;;;;;5071888;28;21002;-62
2021/12/27 09:15:51;;;;;;;14.27;11.50;;;;;;;;;;5071730;28;20938;-62
2021/12/27 09:18:17;;;;;;;16.50;11.80;;;;;;;;;;5071961;28;20433;-60
2021/12/27 09:20:43;;;;;;;15.67;11.03;;;;;;;;;;5071185;28;20199;-60
2021/12/27 09:23:09;;;;;;;14.20;11.23;;;;;;;;;;5071705;28;20203;-61
2021/12/27 09:25:35;;;;;;;13.57;10.40;;;;;;;;;;5071706;28;20662;-60
2021/12/27 09:28:03;;;;;;;17.07;11.63;;;;;;;;;;5071427;28;20210;-62
2021/12/27 09:30:29;;;;;;;19.90;12.10;;;;;;;;;;5065071;28;20446;-58
2021/12/27 09:32:55;;;;;;;14.90;11.27;;;;;;;;;;5071510;28;20433;-58
2021/12/27 09:35:21;;;;;;;14.63;11.57;;;;;;;;;;5071911;28;20198;-57
2021/12/27 09:37:47;;;;;;;14.67;12.20;;;;;;;;;;5071671;28;20546;-58
2021/12/27 09:40:13;;;;;;;13.63;11.07;;;;;;;;;;5071012;28;20477;-57
2021/12/27 09:42:39;;;;;;;14.13;11.43;;;;;;;;;;5071666;28;20444;-58
2021/12/27 09:45:08;;;;;;;15.90;11.80;;;;;;;;;;5072084;28;20535;-58
2021/12/27 09:47:34;;;;;;;14.70;11.53;;;;;;;;;;5071968;28;20434;-58
2021/12/27 09:50:01;;;;;;;15.67;12.33;;;;;;;;;;5072042;28;20480;-58
2021/12/27 09:52:27;;;;;;;17.47;13.07;;;;;;;;;;5071805;28;20438;-58
2021/12/27 09:54:53;;;;;;;15.97;12.60;;;;;;;;;;5071584;28;21023;-58
2021/12/27 09:57:19;;;;;;;16.03;12.40;;;;;;;;;;5071613;28;20569;-57
2021/12/27 09:59:45;;;;;;;17.83;13.10;;;;;;;;;;5071649;28;20199;-58
2021/12/27 10:02:13;;;;;;;18.53;11.97;;;;;;;;;;5071748;28;20460;-56
2021/12/27 10:04:39;;;;;;;17.50;12.77;;;;;;;;;;5071371;28;20733;-57
2021/12/27 10:07:05;;;;;;;17.30;12.57;;;;;;;;;;5071602;28;20445;-56
2021/12/27 10:09:33;;;;;;;17.53;13.07;;;;;;;;;;5071305;28;20203;-57
2021/12/27 10:12:00;;;;;;;16.40;12.43;;;;;;;;;;5071465;28;20445;-57
2021/12/27 10:14:26;;;;;;;17.00;12.30;;;;;;;;;;5071203;28;20455;-56
2021/12/27 10:16:53;;;;;;;16.07;12.93;;;;;;;;;;5071212;28;20602;-58
2021/12/27 10:19:22;;;;;;;18.47;13.97;;;;;;;;;;5071412;28;20298;-57
2021/12/27 10:21:49;;;;;;;20.63;13.63;;;;;;;;;;5071245;28;20793;-55
2021/12/27 10:24:16;;;;;;;16.73;13.47;;;;;;;;;;5069279;28;20846;-60
2021/12/27 10:26:45;;;;;;;16.30;12.83;;;;;;;;;;5071055;28;20484;-60
2021/12/27 10:29:12;;;;;;;18.17;13.43;;;;;;;;;;5070821;28;20516;-60
2021/12/27 10:31:52;;;;;;;19.93;14.30;;;;;;;;;;5073578;28;20438;-60
2021/12/27 10:34:18;;;;;;;18.10;13.90;;;;;;;;;;5073631;28;20437;-61
2021/12/27 10:36:58;;;;;;;17.97;13.50;;;;;;;;;;5074918;28;20477;-60
2021/12/27 10:39:24;;;;;;;18.67;13.60;;;;;;;;;;5071462;28;20715;-60
2021/12/27 10:41:50;;;;;;;22.13;15.60;;;;;;;;;;5074842;28;20995;-61
2021/12/27 10:44:19;;;;;;;20.53;16.17;;;;;;;;;;5074792;28;20196;-61
2021/12/27 10:46:45;;;;;;;16.50;13.77;;;;;;;;;;5072882;28;20183;-61
2021/12/27 10:49:11;;;;;;;19.47;13.23;;;;;;;;;;5070513;28;20432;-61
2021/12/27 10:51:37;;;;;;;20.73;14.67;;;;;;;;;;5074506;28;20196;-60
2021/12/27 10:54:09;;;;;;;17.50;14.13;;;;;;;;;;5075107;28;20537;-61
2021/12/27 10:56:49;;;;;;;20.27;14.83;;;;;;;;;;5075123;28;20482;-61
2021/12/27 10:59:16;;;;;;;20.33;14.30;;;;;;;;;;5075199;28;20801;-63
2021/12/27 11:01:42;;;;;;;23.87;15.37;;;;;;;;;;5074945;28;20426;-62
2021/12/27 11:04:15;;;;;;;18.30;15.40;;;;;;;;;;5074904;28;20524;-62
2021/12/27 11:06:42;;;;;;;17.73;14.30;;;;;;;;;;5072229;28;20258;-61
2021/12/27 11:09:09;;;;;;;20.83;14.90;;;;;;;;;;5074653;28;20433;-61
2021/12/27 11:11:35;;;;;;;19.30;13.87;;;;;;;;;;5074243;28;20908;-62
2021/12/27 11:14:01;;;;;;;19.10;14.23;;;;;;;;;;5074375;28;20441;-62
2021/12/27 11:16:28;;;;;;;18.20;14.03;;;;;;;;;;5074402;28;20466;-61
2021/12/27 11:18:54;;;;;;;20.70;14.63;;;;;;;;;;5074130;28;20434;-61
2021/12/27 11:21:22;;;;;;;20.73;14.87;;;;;;;;;;5074331;28;20438;-61
2021/12/27 11:23:49;;;;;;;20.03;15.23;;;;;;;;;;5074269;28;20442;-61
2021/12/27 11:26:22;;;;;;;19.57;14.37;;;;;;;;;;5074430;28;20854;-62
2021/12/27 11:28:49;;;;;;;19.67;14.27;;;;;;;;;;5074250;28;20444;-63
2021/12/27 11:31:16;;;;;;;18.73;15.10;;;;;;;;;;5074546;28;20855;-62
2021/12/27 11:33:52;;;;;;;22.60;14.27;;;;;;;;;;5074164;28;20442;-62
2021/12/27 11:36:18;;;;;;;19.27;14.50;;;;;;;;;;5074398;28;20887;-62
2021/12/27 11:38:44;;;;;;;19.33;15.43;;;;;;;;;;5074027;28;20860;-62
2021/12/27 11:41:28;;;;;;;18.83;14.87;;;;;;;;;;5074064;28;20481;-61
2021/12/27 11:43:56;;;;;;;19.30;15.63;;;;;;;;;;5073093;28;20287;-60
2021/12/27 11:46:22;;;;;;;19.23;14.77;;;;;;;;;;5071632;28;20842;-61
2021/12/27 11:48:49;;;;;;;20.50;15.70;;;;;;;;;;5073715;28;20445;-61
2021/12/27 11:51:16;;;;;;;20.70;14.77;;;;;;;;;;5073965;28;20970;-61
2021/12/27 11:53:54;;;;;;;18.27;14.17;;;;;;;;;;5073638;28;20434;-60
2021/12/27 11:56:35;;;;;;;19.33;14.30;;;;;;;;;;5073647;28;20963;-60
2021/12/27 11:59:22;;;;;;;16.37;12.93;;;;;;;;;;5073856;28;20524;-60
2021/12/27 12:01:49;;;;;;;17.27;12.77;;;;;;;;;;5073832;28;20445;-59
2021/12/27 12:04:30;;;;;;;18.00;13.37;;;;;;;;;;5074043;28;20450;-60
2021/12/27 12:06:56;;;;;;;17.87;14.13;;;;;;;;;;5073410;28;20445;-62
2021/12/27 12:09:22;;;;;;;21.83;16.27;;;;;;;;;;5073829;28;20475;-60
2021/12/27 12:12:00;;;;;;;20.03;14.33;;;;;;;;;;5073729;28;20705;-62
2021/12/27 12:14:28;;;;;;;19.57;14.43;;;;;;;;;;5073818;28;20826;-63
2021/12/27 12:16:55;;;;;;;20.80;15.10;;;;;;;;;;5073583;28;20478;-60
2021/12/27 12:19:38;;;;;;;25.33;18.77;;;;;;;;;;5073975;28;20521;-61
2021/12/27 12:22:04;;;;;;;24.00;15.47;;;;;;;;;;5073656;28;20438;-61
2021/12/27 12:24:31;;;;;;;19.73;16.17;;;;;;;;;;5073199;28;20438;-60
2021/12/27 12:26:58;;;;;;;19.93;15.47;;;;;;;;;;5072955;28;20442;-60
2021/12/27 12:29:24;;;;;;;21.53;15.20;;;;;;;;;;5073053;28;20481;-61
2021/12/27 12:31:54;;;;;;;19.23;14.60;;;;;;;;;;5072676;28;20500;-60
2021/12/27 12:34:21;;;;;;;18.83;13.77;;;;;;;;;;5073243;28;20532;-60
2021/12/27 12:36:48;;;;;;;18.03;13.67;;;;;;;;;;5072859;28;20848;-60
2021/12/27 12:39:14;;;;;;;16.07;13.13;;;;;;;;;;5072372;28;20449;-60
2021/12/27 12:41:41;;;;;;;18.40;14.83;;;;;;;;;;5072727;28;20480;-61
2021/12/27 12:44:07;;;;;;;17.53;13.67;;;;;;;;;;5073090;28;20441;-62
2021/12/27 12:46:38;;;;;;;21.20;14.03;;;;;;;;;;5072761;28;20947;-61
2021/12/27 12:49:06;;;;;;;16.20;12.80;;;;;;;;;;5073006;28;20460;-64
2021/12/27 12:51:35;;;;;;;17.77;13.27;;;;;;;;;;5072633;28;20442;-63
2021/12/27 12:54:01;;;;;;;16.90;14.10;;;;;;;;;;5072184;28;20453;-63
2021/12/27 12:56:29;;;;;;;17.23;14.00;;;;;;;;;;5072653;28;20478;-62
2021/12/27 12:59:01;;;;;;;18.23;14.93;;;;;;;;;;5072689;28;20430;-63
2021/12/27 13:01:27;;;;;;;20.03;13.77;;;;;;;;;;5068348;28;20440;-62
2021/12/27 13:03:57;;;;;;;16.30;13.27;;;;;;;;;;5072226;28;21005;-63
2021/12/27 13:06:23;;;;;;;20.33;14.53;;;;;;;;;;5072410;28;20457;-63
2021/12/27 13:08:54;;;;;;;18.03;13.90;;;;;;;;;;5072080;28;20430;-62
2021/12/27 13:11:20;;;;;;;17.73;13.77;;;;;;;;;;5072077;28;20614;-64
2021/12/27 13:13:46;;;;;;;18.70;14.83;;;;;;;;;;5072102;28;20473;-62
2021/12/27 13:16:13;;;;;;;19.43;13.83;;;;;;;;;;5071965;28;20448;-63
2021/12/27 13:18:39;;;;;;;17.70;12.80;;;;;;;;;;5071997;28;20431;-63
2021/12/27 13:21:06;;;;;;;18.60;14.00;;;;;;;;;;5072015;28;20807;-64
2021/12/27 13:23:33;;;;;;;18.57;14.20;;;;;;;;;;5071967;28;20916;-64
2021/12/27 13:26:02;;;;;;;18.33;12.67;;;;;;;;;;5071978;28;20434;-64
2021/12/27 13:28:29;;;;;;;17.33;13.13;;;;;;;;;;5072191;28;20469;-65
2021/12/27 13:30:57;;;;;;;18.03;13.63;;;;;;;;;;5072073;28;20752;-63
2021/12/27 13:33:24;;;;;;;18.77;13.10;;;;;;;;;;5071842;28;20506;-63
2021/12/27 13:35:51;;;;;;;18.93;13.50;;;;;;;;;;5071742;28;20524;-64
2021/12/27 13:38:18;;;;;;;17.03;13.60;;;;;;;;;;5071970;28;20561;-64
2021/12/27 13:40:44;;;;;;;18.23;13.17;;;;;;;;;;5071980;28;20508;-62
2021/12/27 13:43:12;;;;;;;18.43;12.87;;;;;;;;;;5072415;28;20528;-62
2021/12/27 13:45:41;;;;;;;16.47;14.63;;;;;;;;;;5072210;28;20438;-63
2021/12/27 13:48:07;;;;;;;18.03;13.60;;;;;;;;;;5072077;28;20944;-63
2021/12/27 13:50:35;;;;;;;18.77;13.83;;;;;;;;;;5072008;28;20437;-63
2021/12/27 13:53:09;;;;;;;18.17;14.13;;;;;;;;;;5072049;28;20441;-64
2021/12/27 13:55:35;;;;;;;19.90;14.67;;;;;;;;;;5072147;28;20488;-63
2021/12/27 13:58:12;;;;;;;20.30;14.90;;;;;;;;;;5071714;28;20972;-60
2021/12/27 14:00:38;;;;;;;19.80;13.53;;;;;;;;;;5071665;28;20438;-64
2021/12/27 14:03:04;;;;;;;18.40;14.70;;;;;;;;;;5072196;28;20516;-64
2021/12/27 14:05:33;;;;;;;20.13;15.37;;;;;;;;;;5072454;28;20485;-63
2021/12/27 14:08:09;;;;;;;24.60;15.13;;;;;;;;;;5074099;28;20438;-65
2021/12/27 14:10:35;;;;;;;18.77;14.83;;;;;;;;;;5074072;28;20880;-65
2021/12/27 14:13:01;;;;;;;21.23;15.57;;;;;;;;;;5075652;28;20473;-65
2021/12/27 14:15:30;;;;;;;20.60;14.90;;;;;;;;;;5075964;28;20187;-64
2021/12/27 14:18:07;;;;;;;18.97;14.23;;;;;;;;;;5075406;28;20916;-65
2021/12/27 14:20:33;;;;;;;18.33;13.43;;;;;;;;;;5075756;28;20438;-65
2021/12/27 14:23:05;;;;;;;21.20;14.47;;;;;;;;;;5075609;28;20512;-64